sensor_id;sensor_type;location;lat;lon;timestamp;pressure;altitude;pressure_sealevel;temperature;humidity
51530;BME280;37613;51.788;21.582;2023-06-22T00:03:36;100164.94;;;20.62;87.06
51530;BME280;37613;51.788;21.582;2023-06-22T00:07:38;100168.48;;;20.55;86.94
51530;BME280;37613;51.788;21.582;2023-06-22T00:11:40;100155.34;;;20.43;87.11
51530;BME280;37613;51.788;21.582;2023-06-22T00:15:42;100157.46;;;20.38;87.15
51530;BME280;37613;51.788;21.582;2023-06-22T00:19:47;100163.39;;;20.30;87.41
51530;BME280;37613;51.788;21.582;2023-06-22T00:23:49;100164.20;;;20.28;87.60
51530;BME280;37613;51.788;21.582;2023-06-22T00:27:51;100165.14;;;20.27;87.59
51530;BME280;37613;51.788;21.582;2023-06-22T00:31:53;100164.91;;;20.24;87.72
51530;BME280;37613;51.788;21.582;2023-06-22T00:35:55;100165.66;;;20.19;87.63
51530;BME280;37613;51.788;21.582;2023-06-22T00:39:59;100159.99;;;20.13;87.66
51530;BME280;37613;51.788;21.582;2023-06-22T00:44:01;100156.52;;;20.08;87.92
51530;BME280;37613;51.788;21.582;2023-06-22T00:48:05;100154.65;;;20.02;88.11
51530;BME280;37613;51.788;21.582;2023-06-22T00:52:08;100153.46;;;19.95;88.01
51530;BME280;37613;51.788;21.582;2023-06-22T00:56:15;100148.58;;;19.90;88.00
51530;BME280;37613;51.788;21.582;2023-06-22T01:00:22;100148.09;;;19.84;88.17
51530;BME280;37613;51.788;21.582;2023-06-22T01:04:36;100157.07;;;19.78;88.30
51530;BME280;37613;51.788;21.582;2023-06-22T01:08:46;100157.30;;;19.69;88.40
51530;BME280;37613;51.788;21.582;2023-06-22T01:13:04;100151.80;;;19.64;90.25
51530;BME280;37613;51.788;21.582;2023-06-22T01:17:09;100148.52;;;19.60;91.26
51530;BME280;37613;51.788;21.582;2023-06-22T01:21:17;100148.69;;;19.55;91.44
51530;BME280;37613;51.788;21.582;2023-06-22T01:25:24;100146.06;;;19.50;91.43
51530;BME280;37613;51.788;21.582;2023-06-22T01:29:33;100151.39;;;19.44;91.37
51530;BME280;37613;51.788;21.582;2023-06-22T01:33:39;100148.78;;;19.37;91.11
51530;BME280;37613;51.788;21.582;2023-06-22T01:37:43;100147.05;;;19.30;90.98
51530;BME280;37613;51.788;21.582;2023-06-22T01:41:47;100152.40;;;19.24;90.77
51530;BME280;37613;51.788;21.582;2023-06-22T01:45:51;100149.34;;;19.17;90.69
51530;BME280;37613;51.788;21.582;2023-06-22T01:49:53;100153.23;;;19.12;90.61
51530;BME280;37613;51.788;21.582;2023-06-22T01:53:56;100148.77;;;19.09;90.61
51530;BME280;37613;51.788;21.582;2023-06-22T01:57:58;100142.13;;;19.04;92.00
51530;BME280;37613;51.788;21.582;2023-06-22T02:02:09;100152.29;;;19.00;92.95
51530;BME280;37613;51.788;21.582;2023-06-22T02:06:20;100155.90;;;18.96;93.07
51530;BME280;37613;51.788;21.582;2023-06-22T02:10:24;100145.08;;;18.91;93.27
51530;BME280;37613;51.788;21.582;2023-06-22T02:14:28;100141.44;;;18.90;93.22
51530;BME280;37613;51.788;21.582;2023-06-22T02:18:31;100143.20;;;18.86;93.06
51530;BME280;37613;51.788;21.582;2023-06-22T02:22:33;100145.52;;;18.83;92.91
51530;BME280;37613;51.788;21.582;2023-06-22T02:26:35;100150.02;;;18.80;92.68
51530;BME280;37613;51.788;21.582;2023-06-22T02:30:40;100150.88;;;18.79;92.65
51530;BME280;37613;51.788;21.582;2023-06-22T02:34:41;100151.48;;;18.78;92.55
51530;BME280;37613;51.788;21.582;2023-06-22T02:38:56;100163.64;;;18.75;92.51
51530;BME280;37613;51.788;21.582;2023-06-22T02:43:02;100178.85;;;18.75;92.74
51530;BME280;37613;51.788;21.582;2023-06-22T02:47:05;100180.50;;;18.77;92.72
51530;BME280;37613;51.788;21.582;2023-06-22T02:51:07;100188.98;;;18.81;92.79
51530;BME280;37613;51.788;21.582;2023-06-22T02:55:09;100197.09;;;18.85;92.89
51530;BME280;37613;51.788;21.582;2023-06-22T02:59:11;100206.75;;;18.83;92.88
51530;BME280;37613;51.788;21.582;2023-06-22T03:03:13;100214.92;;;18.83;93.43
51530;BME280;37613;51.788;21.582;2023-06-22T03:07:15;100218.14;;;18.85;93.54
51530;BME280;37613;51.788;21.582;2023-06-22T03:11:19;100221.98;;;18.90;93.72
51530;BME280;37613;51.788;21.582;2023-06-22T03:15:21;100227.66;;;18.95;94.37
51530;BME280;37613;51.788;21.582;2023-06-22T03:19:23;100228.84;;;19.00;94.13
51530;BME280;37613;51.788;21.582;2023-06-22T03:23:25;100231.79;;;19.10;94.30
51530;BME280;37613;51.788;21.582;2023-06-22T03:27:27;100228.05;;;19.23;94.40
51530;BME280;37613;51.788;21.582;2023-06-22T03:31:29;100220.78;;;19.38;94.32
51530;BME280;37613;51.788;21.582;2023-06-22T03:35:31;100222.15;;;19.54;95.08
51530;BME280;37613;51.788;21.582;2023-06-22T03:39:33;100221.00;;;19.73;96.93
51530;BME280;37613;51.788;21.582;2023-06-22T03:43:35;100225.56;;;19.92;97.32
51530;BME280;37613;51.788;21.582;2023-06-22T03:47:37;100238.48;;;20.08;97.58
51530;BME280;37613;51.788;21.582;2023-06-22T03:51:42;100244.29;;;20.26;97.52
51530;BME280;37613;51.788;21.582;2023-06-22T03:55:49;100251.41;;;20.49;97.00
51530;BME280;37613;51.788;21.582;2023-06-22T03:59:52;100248.95;;;20.55;96.33
51530;BME280;37613;51.788;21.582;2023-06-22T04:03:53;100258.47;;;20.58;95.81
51530;BME280;37613;51.788;21.582;2023-06-22T04:07:55;100253.48;;;20.56;95.43
51530;BME280;37613;51.788;21.582;2023-06-22T04:11:57;100247.25;;;20.63;95.67
51530;BME280;37613;51.788;21.582;2023-06-22T04:16:02;100245.24;;;20.71;95.44
51530;BME280;37613;51.788;21.582;2023-06-22T04:20:05;100249.02;;;20.71;95.57
51530;BME280;37613;51.788;21.582;2023-06-22T04:24:07;100250.04;;;20.70;95.99
51530;BME280;37613;51.788;21.582;2023-06-22T04:28:09;100248.39;;;20.78;98.27
51530;BME280;37613;51.788;21.582;2023-06-22T04:32:17;100242.05;;;20.92;99.32
51530;BME280;37613;51.788;21.582;2023-06-22T04:36:19;100252.16;;;21.11;99.44
51530;BME280;37613;51.788;21.582;2023-06-22T04:40:23;100260.88;;;21.08;98.95
51530;BME280;37613;51.788;21.582;2023-06-22T04:44:26;100262.56;;;21.03;98.68
51530;BME280;37613;51.788;21.582;2023-06-22T04:48:29;100256.05;;;21.08;98.44
51530;BME280;37613;51.788;21.582;2023-06-22T04:52:34;100255.55;;;21.20;98.52
51530;BME280;37613;51.788;21.582;2023-06-22T04:56:36;100259.38;;;21.29;98.50
51530;BME280;37613;51.788;21.582;2023-06-22T05:00:38;100261.58;;;21.26;97.98
51530;BME280;37613;51.788;21.582;2023-06-22T05:04:40;100272.83;;;21.20;98.10
51530;BME280;37613;51.788;21.582;2023-06-22T05:08:42;100270.38;;;21.13;97.89
51530;BME280;37613;51.788;21.582;2023-06-22T05:12:46;100267.92;;;21.08;98.21
51530;BME280;37613;51.788;21.582;2023-06-22T05:16:48;100271.37;;;21.03;98.56
51530;BME280;37613;51.788;21.582;2023-06-22T05:20:50;100263.87;;;21.06;98.15
51530;BME280;37613;51.788;21.582;2023-06-22T05:24:53;100266.25;;;21.12;98.62
51530;BME280;37613;51.788;21.582;2023-06-22T05:28:56;100268.75;;;21.21;99.44
51530;BME280;37613;51.788;21.582;2023-06-22T05:32:58;100265.66;;;21.24;99.25
51530;BME280;37613;51.788;21.582;2023-06-22T05:37:01;100265.94;;;21.29;99.00
51530;BME280;37613;51.788;21.582;2023-06-22T05:41:04;100266.36;;;21.29;99.02
51530;BME280;37613;51.788;21.582;2023-06-22T05:45:07;100262.09;;;21.25;98.95
51530;BME280;37613;51.788;21.582;2023-06-22T05:49:15;100266.61;;;21.24;99.39
51530;BME280;37613;51.788;21.582;2023-06-22T05:53:19;100265.78;;;21.23;99.15
51530;BME280;37613;51.788;21.582;2023-06-22T05:57:21;100267.64;;;21.27;98.71
51530;BME280;37613;51.788;21.582;2023-06-22T06:01:23;100269.95;;;21.35;99.07
51530;BME280;37613;51.788;21.582;2023-06-22T06:05:27;100268.73;;;21.41;98.97
51530;BME280;37613;51.788;21.582;2023-06-22T06:09:29;100273.80;;;21.47;98.69
51530;BME280;37613;51.788;21.582;2023-06-22T06:13:31;100282.15;;;21.43;98.81
51530;BME280;37613;51.788;21.582;2023-06-22T06:17:33;100293.73;;;21.32;98.95
51530;BME280;37613;51.788;21.582;2023-06-22T06:21:35;100302.58;;;21.18;99.52
51530;BME280;37613;51.788;21.582;2023-06-22T06:25:37;100313.82;;;21.03;99.94
51530;BME280;37613;51.788;21.582;2023-06-22T06:29:39;100317.94;;;20.97;99.88
51530;BME280;37613;51.788;21.582;2023-06-22T06:33:41;100316.98;;;20.94;99.99
51530;BME280;37613;51.788;21.582;2023-06-22T06:37:48;100315.66;;;20.95;99.99
51530;BME280;37613;51.788;21.582;2023-06-22T06:41:50;100321.05;;;20.99;100.00
51530;BME280;37613;51.788;21.582;2023-06-22T06:45:52;100317.13;;;21.04;99.98
51530;BME280;37613;51.788;21.582;2023-06-22T06:49:54;100316.20;;;21.07;100.00
51530;BME280;37613;51.788;21.582;2023-06-22T06:53:56;100319.52;;;21.07;100.00
51530;BME280;37613;51.788;21.582;2023-06-22T06:57:58;100314.37;;;21.12;100.00
51530;BME280;37613;51.788;21.582;2023-06-22T07:02:01;100312.17;;;21.27;100.00
51530;BME280;37613;51.788;21.582;2023-06-22T07:06:03;100308.52;;;21.47;100.00
51530;BME280;37613;51.788;21.582;2023-06-22T07:10:06;100307.83;;;21.70;100.00
51530;BME280;37613;51.788;21.582;2023-06-22T07:14:08;100307.18;;;21.93;100.00
51530;BME280;37613;51.788;21.582;2023-06-22T07:18:10;100303.52;;;22.07;100.00
51530;BME280;37613;51.788;21.582;2023-06-22T07:22:12;100302.90;;;22.21;99.98
51530;BME280;37613;51.788;21.582;2023-06-22T07:26:14;100310.70;;;22.36;99.86
51530;BME280;37613;51.788;21.582;2023-06-22T07:30:17;100313.83;;;22.48;99.31
51530;BME280;37613;51.788;21.582;2023-06-22T07:34:19;100316.70;;;22.52;98.25
51530;BME280;37613;51.788;21.582;2023-06-22T07:38:21;100319.16;;;22.57;98.14
51530;BME280;37613;51.788;21.582;2023-06-22T07:42:27;100326.11;;;22.58;97.54
51530;BME280;37613;51.788;21.582;2023-06-22T07:46:29;100327.11;;;22.62;96.91
51530;BME280;37613;51.788;21.582;2023-06-22T07:50:34;100324.52;;;22.74;97.13
51530;BME280;37613;51.788;21.582;2023-06-22T07:54:36;100320.79;;;23.00;96.99
51530;BME280;37613;51.788;21.582;2023-06-22T07:58:38;100320.77;;;23.29;96.47
51530;BME280;37613;51.788;21.582;2023-06-22T08:02:41;100325.75;;;23.53;95.65
51530;BME280;37613;51.788;21.582;2023-06-22T08:06:44;100325.56;;;23.74;94.89
51530;BME280;37613;51.788;21.582;2023-06-22T08:10:46;100328.63;;;23.86;93.25
51530;BME280;37613;51.788;21.582;2023-06-22T08:14:48;100334.52;;;23.94;91.64
51530;BME280;37613;51.788;21.582;2023-06-22T08:18:50;100331.23;;;24.10;92.34
51530;BME280;37613;51.788;21.582;2023-06-22T08:22:53;100336.36;;;24.32;91.76
51530;BME280;37613;51.788;21.582;2023-06-22T08:26:56;100338.92;;;24.66;91.70
51530;BME280;37613;51.788;21.582;2023-06-22T08:30:59;100340.08;;;25.07;91.75
51530;BME280;37613;51.788;21.582;2023-06-22T08:35:03;100342.98;;;25.34;89.23
51530;BME280;37613;51.788;21.582;2023-06-22T09:12:44;100340.43;;;27.05;76.13
51530;BME280;37613;51.788;21.582;2023-06-22T09:26:47;100321.05;;;27.76;72.59
51530;BME280;37613;51.788;21.582;2023-06-22T09:58:47;100319.70;;;28.86;62.83
51530;BME280;37613;51.788;21.582;2023-06-22T10:08:41;100319.40;;;29.06;56.59
51530;BME280;37613;51.788;21.582;2023-06-22T10:12:56;100317.80;;;29.21;57.47
51530;BME280;37613;51.788;21.582;2023-06-22T10:17:03;100320.42;;;29.30;52.49
51530;BME280;37613;51.788;21.582;2023-06-22T10:21:10;100326.13;;;29.31;50.53
51530;BME280;37613;51.788;21.582;2023-06-22T10:25:36;100318.45;;;29.31;51.19
51530;BME280;37613;51.788;21.582;2023-06-22T10:38:43;100296.40;;;29.40;50.30
51530;BME280;37613;51.788;21.582;2023-06-22T10:43:03;100294.12;;;29.57;49.36
51530;BME280;37613;51.788;21.582;2023-06-22T10:47:05;100294.33;;;29.57;46.65
51530;BME280;37613;51.788;21.582;2023-06-22T10:51:30;100297.58;;;29.62;46.83
51530;BME280;37613;51.788;21.582;2023-06-22T10:55:36;100292.16;;;29.83;47.18
51530;BME280;37613;51.788;21.582;2023-06-22T10:59:39;100292.59;;;29.83;44.58
51530;BME280;37613;51.788;21.582;2023-06-22T11:03:41;100291.89;;;29.76;43.90
51530;BME280;37613;51.788;21.582;2023-06-22T11:07:44;100287.23;;;29.76;42.64
51530;BME280;37613;51.788;21.582;2023-06-22T11:11:50;100284.99;;;29.92;42.90
51530;BME280;37613;51.788;21.582;2023-06-22T11:15:55;100280.13;;;30.00;41.86
51530;BME280;37613;51.788;21.582;2023-06-22T11:19:57;100280.68;;;30.13;42.45
51530;BME280;37613;51.788;21.582;2023-06-22T11:24:02;100277.27;;;30.30;42.68
51530;BME280;37613;51.788;21.582;2023-06-22T11:28:06;100269.02;;;30.44;41.13
51530;BME280;37613;51.788;21.582;2023-06-22T11:32:08;100271.21;;;30.47;40.79
51530;BME280;37613;51.788;21.582;2023-06-22T11:36:10;100272.21;;;30.46;40.17
51530;BME280;37613;51.788;21.582;2023-06-22T12:11:51;100249.17;;;30.31;37.27
51530;BME280;37613;51.788;21.582;2023-06-22T12:16:46;100248.88;;;30.39;37.34
51530;BME280;37613;51.788;21.582;2023-06-22T12:21:21;100251.23;;;30.41;37.81
51530;BME280;37613;51.788;21.582;2023-06-22T12:26:17;100251.16;;;30.39;38.56
51530;BME280;37613;51.788;21.582;2023-06-22T12:30:19;100252.97;;;30.40;37.60
51530;BME280;37613;51.788;21.582;2023-06-22T12:34:26;100253.63;;;30.30;36.33
51530;BME280;37613;51.788;21.582;2023-06-22T12:38:53;100263.69;;;30.29;34.26
51530;BME280;37613;51.788;21.582;2023-06-22T12:43:04;100270.25;;;30.20;34.19
51530;BME280;37613;51.788;21.582;2023-06-22T12:56:01;100266.98;;;30.04;33.82
51530;BME280;37613;51.788;21.582;2023-06-22T13:00:11;100251.95;;;30.03;34.77
51530;BME280;37613;51.788;21.582;2023-06-22T13:30:17;100252.91;;;30.23;35.30
51530;BME280;37613;51.788;21.582;2023-06-22T13:34:20;100253.76;;;30.20;35.03
51530;BME280;37613;51.788;21.582;2023-06-22T13:38:23;100249.78;;;30.17;35.08
51530;BME280;37613;51.788;21.582;2023-06-22T13:42:26;100252.20;;;30.19;35.74
51530;BME280;37613;51.788;21.582;2023-06-22T13:46:29;100252.67;;;30.14;35.84
51530;BME280;37613;51.788;21.582;2023-06-22T14:17:51;100240.84;;;30.22;35.65
51530;BME280;37613;51.788;21.582;2023-06-22T14:21:53;100234.06;;;30.05;35.79
51530;BME280;37613;51.788;21.582;2023-06-22T14:39:26;100231.14;;;29.87;36.52
51530;BME280;37613;51.788;21.582;2023-06-22T14:58:59;100235.70;;;29.54;36.79
51530;BME280;37613;51.788;21.582;2023-06-22T15:27:59;100238.52;;;29.13;37.08
51530;BME280;37613;51.788;21.582;2023-06-22T15:32:01;100233.77;;;29.12;37.46
51530;BME280;37613;51.788;21.582;2023-06-22T15:36:22;100228.45;;;29.08;37.64
51530;BME280;37613;51.788;21.582;2023-06-22T15:40:24;100222.11;;;29.04;37.90
51530;BME280;37613;51.788;21.582;2023-06-22T15:52:47;100220.65;;;28.81;38.63
51530;BME280;37613;51.788;21.582;2023-06-22T15:56:52;100216.96;;;28.67;39.06
51530;BME280;37613;51.788;21.582;2023-06-22T16:00:54;100218.09;;;28.53;39.44
51530;BME280;37613;51.788;21.582;2023-06-22T16:09:17;100212.54;;;28.33;40.15
51530;BME280;37613;51.788;21.582;2023-06-22T16:18:14;100209.83;;;28.25;40.88
51530;BME280;37613;51.788;21.582;2023-06-22T16:22:37;100209.01;;;28.17;41.17
51530;BME280;37613;51.788;21.582;2023-06-22T16:26:48;100206.98;;;28.15;41.46
51530;BME280;37613;51.788;21.582;2023-06-22T16:39:30;100203.33;;;28.19;41.69
51530;BME280;37613;51.788;21.582;2023-06-22T16:43:33;100203.69;;;28.15;41.72
51530;BME280;37613;51.788;21.582;2023-06-22T16:47:36;100199.97;;;28.09;41.80
51530;BME280;37613;51.788;21.582;2023-06-22T16:52:11;100194.17;;;28.07;41.99
51530;BME280;37613;51.788;21.582;2023-06-22T16:56:16;100201.77;;;28.03;42.20
51530;BME280;37613;51.788;21.582;2023-06-22T17:01:00;100206.94;;;27.95;42.23
51530;BME280;37613;51.788;21.582;2023-06-22T17:05:12;100206.83;;;27.86;42.23
51530;BME280;37613;51.788;21.582;2023-06-22T17:09:29;100205.98;;;27.74;42.46
51530;BME280;37613;51.788;21.582;2023-06-22T17:14:05;100202.41;;;27.66;42.57
51530;BME280;37613;51.788;21.582;2023-06-22T17:22:43;100199.67;;;27.43;42.83
51530;BME280;37613;51.788;21.582;2023-06-22T18:23:35;100180.50;;;25.54;47.10
51530;BME280;37613;51.788;21.582;2023-06-22T18:27:38;100177.14;;;25.28;47.46
51530;BME280;37613;51.788;21.582;2023-06-22T18:31:43;100177.17;;;25.02;48.25
51530;BME280;37613;51.788;21.582;2023-06-22T18:35:45;100181.54;;;24.76;48.62
51530;BME280;37613;51.788;21.582;2023-06-22T18:39:55;100184.61;;;24.49;49.19
51530;BME280;37613;51.788;21.582;2023-06-22T18:44:01;100188.10;;;24.22;49.80
51530;BME280;37613;51.788;21.582;2023-06-22T18:48:06;100192.68;;;23.98;50.13
51530;BME280;37613;51.788;21.582;2023-06-22T18:56:14;100200.48;;;23.52;50.90
51530;BME280;37613;51.788;21.582;2023-06-22T19:00:16;100198.48;;;23.32;51.31
51530;BME280;37613;51.788;21.582;2023-06-22T19:04:19;100198.97;;;23.13;52.10
51530;BME280;37613;51.788;21.582;2023-06-22T19:08:21;100204.93;;;22.96;52.95
51530;BME280;37613;51.788;21.582;2023-06-22T19:12:25;100211.46;;;22.76;52.88
51530;BME280;37613;51.788;21.582;2023-06-22T19:16:30;100214.98;;;22.57;53.62
51530;BME280;37613;51.788;21.582;2023-06-22T19:20:32;100213.37;;;22.38;53.92
51530;BME280;37613;51.788;21.582;2023-06-22T19:24:48;100212.05;;;22.19;54.38
51530;BME280;37613;51.788;21.582;2023-06-22T19:28:55;100211.86;;;22.02;55.14
51530;BME280;37613;51.788;21.582;2023-06-22T19:33:04;100208.27;;;21.85;55.43
51530;BME280;37613;51.788;21.582;2023-06-22T19:37:16;100204.86;;;21.69;55.83
51530;BME280;37613;51.788;21.582;2023-06-22T19:41:18;100201.52;;;21.52;56.21
51530;BME280;37613;51.788;21.582;2023-06-22T19:45:23;100196.93;;;21.36;56.72
51530;BME280;37613;51.788;21.582;2023-06-22T19:49:25;100197.14;;;21.22;57.05
51530;BME280;37613;51.788;21.582;2023-06-22T19:53:27;100193.79;;;21.10;57.57
51530;BME280;37613;51.788;21.582;2023-06-22T19:57:33;100186.16;;;20.99;57.89
51530;BME280;37613;51.788;21.582;2023-06-22T20:01:38;100180.21;;;20.88;58.27
51530;BME280;37613;51.788;21.582;2023-06-22T20:05:44;100176.42;;;20.77;58.61
51530;BME280;37613;51.788;21.582;2023-06-22T20:14:12;100173.38;;;20.55;59.49
51530;BME280;37613;51.788;21.582;2023-06-22T20:18:15;100170.25;;;20.45;60.03
51530;BME280;37613;51.788;21.582;2023-06-22T20:22:18;100169.75;;;20.34;60.28
51530;BME280;37613;51.788;21.582;2023-06-22T20:26:20;100167.86;;;20.23;60.61
51530;BME280;37613;51.788;21.582;2023-06-22T20:30:22;100166.10;;;20.11;61.01
51530;BME280;37613;51.788;21.582;2023-06-22T20:34:38;100164.75;;;19.99;61.34
51530;BME280;37613;51.788;21.582;2023-06-22T20:38:43;100160.17;;;19.87;61.70
51530;BME280;37613;51.788;21.582;2023-06-22T20:42:47;100161.58;;;19.75;62.13
51530;BME280;37613;51.788;21.582;2023-06-22T20:46:49;100157.71;;;19.63;62.46
51530;BME280;37613;51.788;21.582;2023-06-22T20:50:51;100150.77;;;19.53;62.82
51530;BME280;37613;51.788;21.582;2023-06-22T20:54:59;100149.48;;;19.44;63.16
51530;BME280;37613;51.788;21.582;2023-06-22T20:59:01;100145.29;;;19.34;63.45
51530;BME280;37613;51.788;21.582;2023-06-22T21:03:04;100142.16;;;19.25;63.79
51530;BME280;37613;51.788;21.582;2023-06-22T21:07:06;100142.84;;;19.15;64.12
51530;BME280;37613;51.788;21.582;2023-06-22T21:11:08;100143.64;;;19.07;64.46
51530;BME280;37613;51.788;21.582;2023-06-22T21:15:10;100138.97;;;18.99;64.78
51530;BME280;37613;51.788;21.582;2023-06-22T21:19:13;100140.19;;;18.91;65.11
51530;BME280;37613;51.788;21.582;2023-06-22T21:23:15;100140.19;;;18.84;65.53
51530;BME280;37613;51.788;21.582;2023-06-22T21:27:17;100138.35;;;18.77;65.88
51530;BME280;37613;51.788;21.582;2023-06-22T21:31:20;100137.48;;;18.71;66.18
51530;BME280;37613;51.788;21.582;2023-06-22T21:35:22;100134.36;;;18.62;66.49
51530;BME280;37613;51.788;21.582;2023-06-22T21:39:24;100138.60;;;18.53;66.79
51530;BME280;37613;51.788;21.582;2023-06-22T21:43:26;100139.98;;;18.43;66.94
51530;BME280;37613;51.788;21.582;2023-06-22T21:47:28;100138.58;;;18.34;69.28
51530;BME280;37613;51.788;21.582;2023-06-22T21:51:30;100138.91;;;18.22;69.18
51530;BME280;37613;51.788;21.582;2023-06-22T21:55:32;100139.33;;;18.17;68.26
51530;BME280;37613;51.788;21.582;2023-06-22T21:59:35;100133.71;;;18.15;68.45
51530;BME280;37613;51.788;21.582;2023-06-22T22:03:37;100135.11;;;18.14;68.59
51530;BME280;37613;51.788;21.582;2023-06-22T22:07:39;100139.39;;;18.12;68.80
51530;BME280;37613;51.788;21.582;2023-06-22T22:11:41;100154.65;;;18.07;69.08
51530;BME280;37613;51.788;21.582;2023-06-22T22:15:47;100159.15;;;18.02;69.23
51530;BME280;37613;51.788;21.582;2023-06-22T22:19:52;100163.66;;;17.95;69.38
51530;BME280;37613;51.788;21.582;2023-06-22T22:24:00;100164.55;;;17.90;69.56
51530;BME280;37613;51.788;21.582;2023-06-22T22:28:02;100157.57;;;17.83;69.86
51530;BME280;37613;51.788;21.582;2023-06-22T22:32:05;100157.89;;;17.78;70.14
51530;BME280;37613;51.788;21.582;2023-06-22T22:36:08;100154.88;;;17.71;70.22
51530;BME280;37613;51.788;21.582;2023-06-22T22:40:11;100151.58;;;17.63;70.63
51530;BME280;37613;51.788;21.582;2023-06-22T22:44:13;100156.49;;;17.59;70.98
51530;BME280;37613;51.788;21.582;2023-06-22T22:48:16;100159.17;;;17.55;71.15
51530;BME280;37613;51.788;21.582;2023-06-22T22:52:18;100161.73;;;17.49;71.31
51530;BME280;37613;51.788;21.582;2023-06-22T22:56:21;100157.17;;;17.44;71.47
51530;BME280;37613;51.788;21.582;2023-06-22T23:00:25;100149.88;;;17.40;71.60
51530;BME280;37613;51.788;21.582;2023-06-22T23:04:27;100144.02;;;17.34;71.92
51530;BME280;37613;51.788;21.582;2023-06-22T23:08:29;100139.85;;;17.27;72.34
51530;BME280;37613;51.788;21.582;2023-06-22T23:12:31;100131.31;;;17.15;72.78
51530;BME280;37613;51.788;21.582;2023-06-22T23:16:33;100133.70;;;17.10;72.75
51530;BME280;37613;51.788;21.582;2023-06-22T23:20:38;100142.60;;;17.12;73.18
51530;BME280;37613;51.788;21.582;2023-06-22T23:24:40;100138.89;;;17.10;73.50
51530;BME280;37613;51.788;21.582;2023-06-22T23:28:42;100137.34;;;17.08;73.60
51530;BME280;37613;51.788;21.582;2023-06-22T23:32:44;100126.01;;;17.06;73.89
51530;BME280;37613;51.788;21.582;2023-06-22T23:36:50;100118.06;;;16.98;74.24
51530;BME280;37613;51.788;21.582;2023-06-22T23:40:52;100117.06;;;16.90;74.44
51530;BME280;37613;51.788;21.582;2023-06-22T23:44:56;100110.82;;;16.86;74.76
51530;BME280;37613;51.788;21.582;2023-06-22T23:48:58;100104.67;;;16.85;75.26
51530;BME280;37613;51.788;21.582;2023-06-22T23:53:00;100097.09;;;16.89;75.38
51530;BME280;37613;51.788;21.582;2023-06-22T23:57:03;100083.96;;;16.93;75.68
